createdAt,value
2023-06-06T00:00:29.580Z,17.40
2023-06-06T00:04:32.516Z,17.40
2023-06-06T00:08:36.769Z,17.50
2023-06-06T00:12:42.299Z,17.50
2023-06-06T00:16:48.086Z,17.50
2023-06-06T00:20:54.245Z,17.50
2023-06-06T00:24:58.444Z,17.50
2023-06-06T00:29:01.398Z,17.50
2023-06-06T00:33:04.372Z,17.50
2023-06-06T00:37:07.763Z,17.40
2023-06-06T00:41:13.123Z,17.40
2023-06-06T00:45:17.351Z,17.40
2023-06-06T00:49:24.860Z,17.40
2023-06-06T00:53:27.864Z,17.40
2023-06-06T00:57:32.225Z,17.30
2023-06-06T01:01:37.980Z,17.20
2023-06-06T01:05:41.676Z,17.20
2023-06-06T01:09:45.460Z,17.20
2023-06-06T01:13:58.753Z,17.20
2023-06-06T01:18:03.120Z,17.10
2023-06-06T01:22:08.018Z,17.10
2023-06-06T01:26:13.632Z,17.10
2023-06-06T01:30:20.539Z,17.10
2023-06-06T01:34:31.745Z,17.10
2023-06-06T01:38:42.371Z,17.10
2023-06-06T01:42:48.753Z,17.10
2023-06-06T01:46:51.497Z,17.00
2023-06-06T01:50:55.362Z,17.00
2023-06-06T01:55:00.262Z,17.10
2023-06-06T01:59:03.376Z,17.00
2023-06-06T02:03:06.402Z,17.00
2023-06-06T02:07:09.382Z,16.90
2023-06-06T02:11:13.812Z,16.90
2023-06-06T02:15:18.141Z,16.90
2023-06-06T02:19:21.343Z,16.80
2023-06-06T02:23:24.210Z,16.80
2023-06-06T02:27:30.431Z,16.80
2023-06-06T02:31:33.360Z,16.80
2023-06-06T02:35:37.095Z,16.70
2023-06-06T02:39:40.094Z,16.70
2023-06-06T02:43:44.371Z,16.70
2023-06-06T02:47:47.493Z,16.70
2023-06-06T02:51:54.302Z,16.70
2023-06-06T02:55:57.164Z,16.70
2023-06-06T03:00:01.596Z,16.70
2023-06-06T03:04:05.366Z,16.70
2023-06-06T03:08:08.299Z,16.60
2023-06-06T03:12:12.532Z,16.60
2023-06-06T03:16:17.834Z,16.60
2023-06-06T03:20:21.785Z,16.60
2023-06-06T03:24:36.943Z,16.60
2023-06-06T03:28:44.341Z,16.50
2023-06-06T03:32:53.116Z,16.50
2023-06-06T03:36:56.413Z,16.50
2023-06-06T03:40:59.588Z,16.40
2023-06-06T03:45:02.616Z,16.40
2023-06-06T03:49:07.015Z,16.40
2023-06-06T03:53:09.875Z,16.30
2023-06-06T03:57:13.954Z,16.30
2023-06-06T04:01:19.745Z,16.40
2023-06-06T04:05:24.556Z,16.30
2023-06-06T04:09:27.630Z,16.30
2023-06-06T04:13:30.483Z,16.20
2023-06-06T04:17:33.384Z,16.30
2023-06-06T04:21:37.923Z,16.20
2023-06-06T04:25:40.731Z,16.20
2023-06-06T04:29:43.624Z,16.30
2023-06-06T04:33:56.702Z,16.40
2023-06-06T04:38:03.860Z,16.60
2023-06-06T04:42:07.816Z,16.60
2023-06-06T04:46:10.736Z,16.60
2023-06-06T04:50:16.534Z,16.60
2023-06-06T04:54:24.719Z,16.60
2023-06-06T04:58:29.758Z,16.60
2023-06-06T05:02:32.597Z,16.50
2023-06-06T05:06:36.163Z,16.50
2023-06-06T05:10:42.827Z,16.50
2023-06-06T05:14:45.705Z,16.60
2023-06-06T05:18:48.561Z,16.70
2023-06-06T05:22:51.548Z,16.60
2023-06-06T05:26:58.599Z,16.60
2023-06-06T05:31:03.705Z,16.60
2023-06-06T05:35:07.729Z,16.60
2023-06-06T05:39:11.552Z,16.60
2023-06-06T05:43:16.768Z,16.50
2023-06-06T05:47:19.723Z,16.40
2023-06-06T05:51:22.802Z,16.40
2023-06-06T05:55:29.156Z,16.50
2023-06-06T05:59:35.322Z,16.50
2023-06-06T06:03:39.688Z,16.50
2023-06-06T06:07:42.732Z,16.50
2023-06-06T06:11:45.533Z,16.60
2023-06-06T06:15:49.984Z,16.70
2023-06-06T06:19:53.627Z,16.80
2023-06-06T06:23:56.489Z,16.90
2023-06-06T06:27:59.353Z,16.90
2023-06-06T06:32:03.594Z,16.80
2023-06-06T06:36:07.374Z,16.80
2023-06-06T06:40:12.051Z,16.90
2023-06-06T06:44:15.229Z,17.00
2023-06-06T06:48:19.396Z,17.00
2023-06-06T06:52:22.377Z,17.00
2023-06-06T06:56:25.399Z,17.00
2023-06-06T07:00:28.381Z,17.00
2023-06-06T07:04:37.710Z,17.00
2023-06-06T07:08:42.709Z,17.00
2023-06-06T07:12:48.452Z,16.90
2023-06-06T07:16:51.293Z,16.90
2023-06-06T07:20:55.543Z,17.00
2023-06-06T07:24:58.627Z,17.00
2023-06-06T07:29:01.472Z,17.00
2023-06-06T07:33:05.013Z,17.10
2023-06-06T07:37:09.665Z,17.10
2023-06-06T07:41:12.760Z,17.10
2023-06-06T07:45:15.789Z,17.20
2023-06-06T07:49:18.635Z,17.30
2023-06-06T07:53:22.969Z,17.30
2023-06-06T07:57:26.881Z,17.40
2023-06-06T08:01:30.951Z,17.60
2023-06-06T08:05:35.304Z,17.70
2023-06-06T08:09:39.968Z,17.80
2023-06-06T08:13:43.027Z,17.90
2023-06-06T08:17:46.693Z,17.90
2023-06-06T08:21:49.642Z,18.00
2023-06-06T08:25:56.762Z,18.10
2023-06-06T08:30:00.928Z,18.20
2023-06-06T08:34:04.226Z,18.40
2023-06-06T08:38:07.093Z,18.80
2023-06-06T08:42:12.707Z,19.10
2023-06-06T08:46:16.485Z,19.50
2023-06-06T08:50:21.985Z,19.80
2023-06-06T08:54:26.396Z,20.60
2023-06-06T08:58:31.813Z,21.10
2023-06-06T09:02:34.818Z,21.40
2023-06-06T09:06:42.213Z,21.60
2023-06-06T09:10:46.914Z,21.70
2023-06-06T09:14:51.216Z,21.50
2023-06-06T09:18:54.197Z,21.30
2023-06-06T09:22:58.633Z,21.50
2023-06-06T09:27:01.868Z,21.70
2023-06-06T09:31:24.250Z,21.90
2023-06-06T09:35:31.609Z,22.20
2023-06-06T09:39:34.794Z,22.00
2023-06-06T09:43:39.027Z,22.10
2023-06-06T09:47:46.697Z,22.50
2023-06-06T09:51:54.555Z,22.70
2023-06-06T09:55:58.943Z,22.20
2023-06-06T10:00:03.786Z,22.10
2023-06-06T10:04:16.711Z,22.20
2023-06-06T10:08:21.174Z,22.30
2023-06-06T10:12:24.785Z,22.40
2023-06-06T10:16:30.768Z,22.60
2023-06-06T10:20:35.290Z,22.90
2023-06-06T10:24:39.938Z,23.10
2023-06-06T10:28:51.868Z,23.40
2023-06-06T10:33:03.846Z,22.90
2023-06-06T10:37:17.608Z,22.80
2023-06-06T10:41:20.461Z,23.30
2023-06-06T10:45:43.129Z,23.80
2023-06-06T10:50:22.411Z,24.10
2023-06-06T10:54:29.865Z,23.80
2023-06-06T10:58:36.368Z,23.80
2023-06-06T11:02:41.792Z,24.00
2023-06-06T11:06:45.462Z,24.20
2023-06-06T11:10:49.705Z,24.20
2023-06-06T11:14:59.710Z,24.50
2023-06-06T11:19:04.333Z,24.60
2023-06-06T11:23:07.232Z,24.70
2023-06-06T11:27:11.621Z,24.70
2023-06-06T11:31:18.165Z,24.40
2023-06-06T11:35:22.525Z,24.80
2023-06-06T11:39:29.467Z,25.00
2023-06-06T11:43:33.864Z,25.10
2023-06-06T11:47:36.690Z,25.10
2023-06-06T11:51:39.658Z,25.10
2023-06-06T11:55:42.918Z,25.70
2023-06-06T11:59:54.891Z,25.50
2023-06-06T12:03:58.309Z,25.40
2023-06-06T12:08:01.641Z,25.30
2023-06-06T12:12:06.340Z,26.40
2023-06-06T12:16:10.919Z,27.90
2023-06-06T12:20:23.157Z,27.90
2023-06-06T12:24:27.457Z,26.50
2023-06-06T12:28:30.352Z,26.80
2023-06-06T12:32:37.499Z,29.50
2023-06-06T12:36:41.002Z,31.30
2023-06-06T12:40:43.685Z,32.10
2023-06-06T12:44:47.535Z,30.80
2023-06-06T12:48:52.015Z,29.10
2023-06-06T12:52:54.950Z,29.60
2023-06-06T12:56:57.823Z,28.60
2023-06-06T13:01:00.751Z,27.20
2023-06-06T13:05:06.838Z,28.60
2023-06-06T13:09:09.745Z,29.90
2023-06-06T13:13:12.629Z,30.20
2023-06-06T13:17:15.634Z,29.90
2023-06-06T13:21:19.946Z,29.70
2023-06-06T13:25:23.225Z,29.40
2023-06-06T13:29:26.221Z,29.10
2023-06-06T13:33:29.301Z,28.60
2023-06-06T13:37:33.697Z,28.60
2023-06-06T13:41:37.344Z,27.90
2023-06-06T13:45:40.292Z,27.50
2023-06-06T13:49:43.184Z,27.00
2023-06-06T13:53:47.576Z,26.90
2023-06-06T13:57:53.460Z,26.80
2023-06-06T14:01:56.946Z,26.70
2023-06-06T14:05:59.976Z,26.50
2023-06-06T14:10:04.550Z,26.60
2023-06-06T14:14:07.671Z,26.60
2023-06-06T14:18:10.697Z,26.50
2023-06-06T14:22:25.113Z,26.10
2023-06-06T14:26:29.733Z,26.20
2023-06-06T14:30:32.590Z,26.20
2023-06-06T14:34:35.461Z,26.00
2023-06-06T14:38:38.985Z,25.80
2023-06-06T14:42:43.190Z,25.70
2023-06-06T14:46:46.118Z,25.80
2023-06-06T14:50:49.006Z,25.80
2023-06-06T14:54:51.897Z,25.70
2023-06-06T14:58:56.150Z,25.70
2023-06-06T15:03:00.369Z,25.70
2023-06-06T15:07:05.206Z,25.70
2023-06-06T15:11:08.288Z,25.60
2023-06-06T15:15:12.925Z,25.60
2023-06-06T15:19:17.210Z,25.40
2023-06-06T15:23:20.167Z,25.40
2023-06-06T15:27:23.253Z,25.30
2023-06-06T15:31:27.923Z,25.20
2023-06-06T15:35:31.518Z,25.20
2023-06-06T15:40:51.797Z,25.10
2023-06-06T15:45:17.786Z,25.00
2023-06-06T15:49:36.691Z,24.90
2023-06-06T15:53:47.292Z,24.80
2023-06-06T15:57:56.336Z,24.70
2023-06-06T16:02:01.528Z,24.60
2023-06-06T16:06:07.352Z,24.60
2023-06-06T16:10:11.455Z,24.40
2023-06-06T16:14:14.925Z,24.40
2023-06-06T16:18:28.275Z,24.40
2023-06-06T16:22:32.496Z,24.30
2023-06-06T16:26:35.384Z,24.20
2023-06-06T16:36:40.171Z,24.00
2023-06-06T16:40:46.663Z,23.90
2023-06-06T16:51:15.531Z,23.70
2023-06-06T16:55:40.796Z,23.70
2023-06-06T16:59:45.669Z,23.60
2023-06-06T17:04:10.979Z,23.50
2023-06-06T17:08:14.024Z,23.40
2023-06-06T17:12:18.288Z,23.30
2023-06-06T17:22:48.186Z,23.10
2023-06-06T17:33:24.121Z,23.00
2023-06-06T17:37:38.543Z,22.90
2023-06-06T17:41:54.224Z,22.80
2023-06-06T17:46:02.274Z,22.70
2023-06-06T17:50:19.173Z,22.70
2023-06-06T17:54:32.148Z,22.60
2023-06-06T17:58:52.998Z,22.50
2023-06-06T18:02:57.406Z,22.40
2023-06-06T18:07:37.458Z,22.20
2023-06-06T18:11:48.141Z,22.10
2023-06-06T18:15:57.975Z,22.00
2023-06-06T18:20:03.462Z,21.90
2023-06-06T18:24:27.536Z,21.80
2023-06-06T18:28:51.625Z,21.60
2023-06-06T18:33:25.651Z,21.50
2023-06-06T18:38:12.126Z,21.30
2023-06-06T18:42:43.038Z,21.20
2023-06-06T18:46:52.312Z,21.10
2023-06-06T18:51:25.843Z,21.00
2023-06-06T18:55:39.099Z,20.80
2023-06-06T19:00:05.830Z,20.70
2023-06-06T19:04:36.830Z,20.50
2023-06-06T19:08:56.274Z,20.40
2023-06-06T19:13:25.200Z,20.30
2023-06-06T19:17:30.154Z,20.20
2023-06-06T19:21:39.459Z,20.10
2023-06-06T19:25:44.475Z,20.00
2023-06-06T19:29:49.212Z,19.90
2023-06-06T19:33:53.157Z,19.80
2023-06-06T19:37:56.284Z,19.70
2023-06-06T19:42:00.741Z,19.60
2023-06-06T19:46:03.985Z,19.50
2023-06-06T19:50:10.471Z,19.40
2023-06-06T19:54:13.315Z,19.40
2023-06-06T19:58:19.980Z,19.30
2023-06-06T20:02:25.232Z,19.20
2023-06-06T20:06:31.616Z,19.20
2023-06-06T20:10:34.511Z,19.10
2023-06-06T20:14:39.335Z,19.00
2023-06-06T20:18:42.356Z,18.90
2023-06-06T20:22:46.665Z,18.80
2023-06-06T20:26:49.639Z,18.80
2023-06-06T20:30:54.417Z,18.70
2023-06-06T20:34:57.393Z,18.60
2023-06-06T20:39:00.699Z,18.60
2023-06-06T20:43:03.751Z,18.50
2023-06-06T20:47:08.668Z,18.50
2023-06-06T20:51:12.348Z,18.40
2023-06-06T20:55:16.372Z,18.30
2023-06-06T20:59:19.652Z,18.30
2023-06-06T21:03:24.358Z,18.30
2023-06-06T21:07:27.571Z,18.30
2023-06-06T21:11:30.742Z,18.30
2023-06-06T21:15:33.861Z,18.20
2023-06-06T21:19:38.357Z,18.10
2023-06-06T21:23:41.469Z,18.10
2023-06-06T21:27:44.545Z,18.00
2023-06-06T21:31:47.735Z,18.00
2023-06-06T21:35:52.188Z,17.90
2023-06-06T21:39:55.281Z,17.80
2023-06-06T21:43:58.386Z,17.80
2023-06-06T21:48:01.580Z,17.60
2023-06-06T21:52:06.586Z,17.40
2023-06-06T21:56:09.896Z,17.10
2023-06-06T22:00:15.088Z,17.00
2023-06-06T22:04:19.591Z,17.00
2023-06-06T22:08:24.125Z,17.00
2023-06-06T22:12:27.149Z,16.90
2023-06-06T22:16:30.260Z,16.80
2023-06-06T22:20:33.317Z,16.50
2023-06-06T22:24:37.887Z,16.40
2023-06-06T22:28:41.080Z,16.40
2023-06-06T22:32:44.148Z,16.20
2023-06-06T22:36:47.217Z,16.10
2023-06-06T22:40:51.702Z,16.00
2023-06-06T22:44:54.715Z,16.00
2023-06-06T22:48:57.904Z,15.90
2023-06-06T22:53:00.939Z,15.80
2023-06-06T22:57:06.055Z,15.80
2023-06-06T23:01:10.248Z,15.70
2023-06-06T23:05:13.779Z,15.70
2023-06-06T23:09:17.350Z,15.70
2023-06-06T23:13:21.807Z,15.70
2023-06-06T23:17:25.471Z,15.70
2023-06-06T23:21:29.722Z,15.60
2023-06-06T23:25:32.758Z,15.60
2023-06-06T23:29:37.163Z,15.50
2023-06-06T23:33:40.222Z,15.30
2023-06-06T23:37:43.279Z,15.20
2023-06-06T23:41:46.321Z,15.20
2023-06-06T23:45:51.325Z,15.10
2023-06-06T23:49:54.572Z,15.00
2023-06-06T23:53:57.978Z,14.90
2023-06-06T23:58:01.194Z,14.80
